createdAt,value
2019-04-01T00:00:43.832Z,96477.45
2019-04-01T00:03:15.754Z,96477.88
2019-04-01T00:05:50.134Z,96476.51
2019-04-01T00:08:21.701Z,96483.37
2019-04-01T00:10:55.750Z,96484.98
2019-04-01T00:13:28.767Z,96476.97
2019-04-01T00:16:00.928Z,96477.72
2019-04-01T00:18:33.716Z,96477.27
2019-04-01T00:21:05.976Z,96482.88
2019-04-01T00:23:38.057Z,96478.95
2019-04-01T00:26:10.059Z,96478.32
2019-04-01T00:28:42.871Z,96481.27
2019-04-01T00:31:16.227Z,96480.84
2019-04-01T00:33:48.906Z,96477.00
2019-04-01T00:36:21.730Z,96477.11
2019-04-01T00:38:52.904Z,96479.90
2019-04-01T00:41:26.690Z,96479.95
2019-04-01T00:47:00.630Z,96479.12
2019-04-01T00:49:33.858Z,96478.41
2019-04-01T00:52:08.093Z,96482.47
2019-04-01T00:54:40.061Z,96483.19
2019-04-01T00:57:12.968Z,96486.34
2019-04-01T00:59:46.003Z,96485.26
2019-04-01T01:02:19.148Z,96480.55
2019-04-01T01:04:52.162Z,96480.55
2019-04-01T01:07:25.145Z,96478.28
2019-04-01T01:09:57.323Z,96479.45
2019-04-01T01:12:29.384Z,96482.28
2019-04-01T01:15:01.120Z,96485.63
2019-04-01T01:17:34.178Z,96493.31
2019-04-01T01:20:07.570Z,96489.75
2019-04-01T01:22:40.316Z,96490.73
2019-04-01T01:25:11.765Z,96486.09
2019-04-01T01:27:46.816Z,96495.22
2019-04-01T01:30:19.369Z,96494.50
2019-04-01T01:32:51.998Z,96495.34
2019-04-01T01:35:23.226Z,96497.28
2019-04-01T01:37:55.285Z,96499.47
2019-04-01T01:40:28.273Z,96501.13
2019-04-01T01:43:01.250Z,96495.50
2019-04-01T01:45:34.376Z,96493.66
2019-04-01T01:49:03.820Z,96489.06
2019-04-01T01:51:37.323Z,96494.50
2019-04-01T01:54:10.325Z,96492.95
2019-04-01T01:56:43.289Z,96490.60
2019-04-01T01:59:16.223Z,96489.73
2019-04-01T02:01:50.473Z,96489.45
2019-04-01T02:04:22.330Z,96492.31
2019-04-01T02:06:56.274Z,96498.72
2019-04-01T02:09:28.308Z,96502.34
2019-04-01T02:12:01.836Z,96498.72
2019-04-01T02:14:35.200Z,96501.29
2019-04-01T02:17:09.269Z,96499.52
2019-04-01T02:19:43.734Z,96498.23
2019-04-01T02:22:18.198Z,96496.84
2019-04-01T02:24:53.670Z,96497.84
2019-04-01T02:27:26.523Z,96498.47
2019-04-01T02:29:58.395Z,96501.52
2019-04-01T02:32:30.525Z,96493.45
2019-04-01T02:35:04.796Z,96501.13
2019-04-01T02:37:37.473Z,96503.31
2019-04-01T02:40:11.347Z,96499.41
2019-04-01T02:42:43.554Z,96498.53
2019-04-01T02:45:17.361Z,96493.45
2019-04-01T02:47:51.896Z,96490.11
2019-04-01T02:50:24.463Z,96489.27
2019-04-01T02:52:58.517Z,96496.73
2019-04-01T02:55:30.595Z,96496.12
2019-04-01T02:58:04.879Z,96495.39
2019-04-01T03:00:37.363Z,96501.20
2019-04-01T03:03:10.596Z,96496.58
2019-04-01T03:05:43.631Z,96505.73
2019-04-01T03:08:15.825Z,96505.58
2019-04-01T03:10:49.513Z,96494.57
2019-04-01T03:13:23.188Z,96507.02
2019-04-01T03:15:55.716Z,96497.40
2019-04-01T03:18:28.749Z,96502.13
2019-04-01T03:21:01.769Z,96505.47
2019-04-01T03:23:34.685Z,96508.97
2019-04-01T03:26:07.626Z,96504.45
2019-04-01T03:28:42.337Z,96516.94
2019-04-01T03:31:13.732Z,96512.08
2019-04-01T03:33:45.731Z,96513.25
2019-04-01T03:36:20.375Z,96511.01
2019-04-01T03:38:51.620Z,96513.38
2019-04-01T03:41:26.858Z,96507.38
2019-04-01T03:43:59.634Z,96514.02
2019-04-01T03:46:30.942Z,96512.80
2019-04-01T03:49:05.715Z,96509.13
2019-04-01T03:51:37.778Z,96509.69
2019-04-01T03:54:09.778Z,96514.23
2019-04-01T03:56:42.879Z,96514.86
2019-04-01T03:59:15.936Z,96514.81
2019-04-01T04:01:49.323Z,96514.03
2019-04-01T04:04:21.887Z,96520.13
2019-04-01T04:06:54.668Z,96522.84
2019-04-01T04:09:28.029Z,96525.30
2019-04-01T04:12:01.391Z,96517.55
2019-04-01T04:14:33.932Z,96518.02
2019-04-01T04:17:05.213Z,96520.98
2019-04-01T04:19:36.878Z,96518.52
2019-04-01T04:22:09.892Z,96520.41
2019-04-01T04:24:43.069Z,96522.61
2019-04-01T04:27:15.963Z,96524.31
2019-04-01T04:29:49.188Z,96524.04
2019-04-01T04:32:21.945Z,96517.55
2019-04-01T04:34:57.512Z,96520.48
2019-04-01T04:37:28.955Z,96521.27
2019-04-01T04:40:01.361Z,96526.41
2019-04-01T04:42:35.707Z,96529.03
2019-04-01T04:45:07.001Z,96534.41
2019-04-01T04:47:40.107Z,96527.78
2019-04-01T04:50:13.160Z,96529.62
2019-04-01T04:52:48.405Z,96534.09
2019-04-01T04:55:23.145Z,96535.89
2019-04-01T04:57:55.020Z,96539.38
2019-04-01T05:00:28.039Z,96546.39
2019-04-01T05:03:01.017Z,96545.70
2019-04-01T05:05:33.314Z,96548.98
2019-04-01T05:08:06.094Z,96549.55
2019-04-01T05:10:39.789Z,96554.55
2019-04-01T05:13:13.171Z,96559.66
2019-04-01T05:15:46.281Z,96560.39
2019-04-01T05:18:20.085Z,96561.77
2019-04-01T05:20:52.158Z,96567.06
2019-04-01T05:23:26.750Z,96569.87
2019-04-01T05:25:58.612Z,96574.71
2019-04-01T05:28:31.166Z,96577.53
2019-04-01T05:31:06.079Z,96572.84
2019-04-01T05:33:54.851Z,96580.16
2019-04-01T05:36:16.703Z,96577.59
2019-04-01T05:38:49.322Z,96579.95
2019-04-01T05:41:23.383Z,96578.23
2019-04-01T05:43:55.587Z,96585.96
2019-04-01T05:46:27.307Z,96587.52
2019-04-01T05:49:01.511Z,96587.81
2019-04-01T05:51:36.067Z,96596.91
2019-04-01T05:54:09.039Z,96600.59
2019-04-01T05:56:40.340Z,96597.84
2019-04-01T05:59:14.486Z,96599.77
2019-04-01T06:01:48.858Z,96600.78
2019-04-01T06:04:20.262Z,96601.58
2019-04-01T06:06:52.461Z,96603.94
2019-04-01T06:09:24.320Z,96598.92
2019-04-01T06:11:58.251Z,96609.42
2019-04-01T06:14:30.517Z,96603.30
2019-04-01T06:17:03.837Z,96608.14
2019-04-01T06:19:37.394Z,96603.03
2019-04-01T06:22:10.406Z,96602.46
2019-04-01T06:24:43.467Z,96608.59
2019-04-01T06:27:16.790Z,96606.47
2019-04-01T06:29:49.699Z,96601.81
2019-04-01T06:32:22.447Z,96603.48
2019-04-01T06:34:55.442Z,96609.43
2019-04-01T06:37:28.640Z,96608.14
2019-04-01T06:40:01.245Z,96609.52
2019-04-01T06:46:23.511Z,96604.86
2019-04-01T06:48:56.466Z,96612.32
2019-04-01T06:51:28.587Z,96614.43
2019-04-01T06:54:01.537Z,96615.42
2019-04-01T06:56:35.124Z,96606.48
2019-04-01T06:59:07.507Z,96612.64
2019-04-01T07:01:40.728Z,96618.19
2019-04-01T07:04:13.695Z,96618.50
2019-04-01T07:06:46.601Z,96617.84
2019-04-01T07:09:22.103Z,96616.64
2019-04-01T07:11:55.664Z,96620.16
2019-04-01T07:14:29.614Z,96612.59
2019-04-01T07:17:03.537Z,96617.48
2019-04-01T07:19:39.235Z,96620.06
2019-04-01T07:22:12.601Z,96620.31
2019-04-01T07:24:48.334Z,96620.42
2019-04-01T07:27:19.945Z,96617.27
2019-04-01T07:29:53.071Z,96620.61
2019-04-01T07:32:25.743Z,96619.63
2019-04-01T07:34:58.704Z,96611.61
2019-04-01T07:37:31.378Z,96616.95
2019-04-01T07:40:05.800Z,96615.20
2019-04-01T07:42:37.840Z,96616.38
2019-04-01T07:45:11.120Z,96609.95
2019-04-01T07:47:43.692Z,96617.97
2019-04-01T07:50:17.125Z,96616.89
2019-04-01T07:52:49.244Z,96607.08
2019-04-01T07:55:22.815Z,96614.70
2019-04-01T07:57:59.476Z,96612.80
2019-04-01T08:00:31.148Z,96614.19
2019-04-01T08:03:05.080Z,96617.92
2019-04-01T08:05:37.997Z,96610.56
2019-04-01T08:08:10.954Z,96615.98
2019-04-01T08:10:43.919Z,96609.22
2019-04-01T08:13:16.029Z,96612.61
2019-04-01T08:15:50.061Z,96609.44
2019-04-01T08:18:23.910Z,96611.78
2019-04-01T08:20:56.984Z,96610.91
2019-04-01T08:23:29.196Z,96611.78
2019-04-01T08:26:02.013Z,96606.63
2019-04-01T08:28:35.074Z,96609.02
2019-04-01T08:31:08.769Z,96603.17
2019-04-01T08:33:42.120Z,96608.68
2019-04-01T08:36:15.868Z,96608.06
2019-04-01T08:38:50.175Z,96600.49
2019-04-01T08:41:23.158Z,96597.12
2019-04-01T08:43:56.310Z,96597.52
2019-04-01T08:46:27.659Z,96590.67
2019-04-01T08:49:00.804Z,96594.22
2019-04-01T08:51:32.128Z,96594.03
2019-04-01T08:54:03.480Z,96591.84
2019-04-01T08:56:38.093Z,96594.55
2019-04-01T08:59:08.343Z,96597.61
2019-04-01T09:01:41.010Z,96591.92
2019-04-01T09:04:14.600Z,96593.66
2019-04-01T09:06:47.218Z,96591.45
2019-04-01T09:09:19.171Z,96588.48
2019-04-01T09:11:52.196Z,96582.04
2019-04-01T09:14:25.160Z,96579.87
2019-04-01T09:16:58.120Z,96579.73
2019-04-01T09:19:30.489Z,96578.56
2019-04-01T09:22:02.856Z,96579.86
2019-04-01T09:24:35.341Z,96575.73
2019-04-01T09:27:08.264Z,96578.60
2019-04-01T09:29:41.487Z,96573.85
2019-04-01T09:32:13.783Z,96573.43
2019-04-01T09:34:46.409Z,96571.22
2019-04-01T09:37:19.200Z,96565.16
2019-04-01T09:39:52.293Z,96563.52
2019-04-01T09:42:25.482Z,96549.62
2019-04-01T09:44:58.795Z,96556.14
2019-04-01T09:47:30.484Z,96547.13
2019-04-01T09:50:04.504Z,96548.17
2019-04-01T09:52:37.358Z,96542.35
2019-04-01T09:55:10.530Z,96540.11
2019-04-01T09:57:46.205Z,96536.70
2019-04-01T10:00:19.774Z,96534.20
2019-04-01T10:02:54.153Z,96533.87
2019-04-01T10:05:28.045Z,96531.66
2019-04-01T10:07:59.510Z,96530.28
2019-04-01T10:10:31.506Z,96525.06
2019-04-01T10:13:04.651Z,96520.95
2019-04-01T10:15:37.653Z,96515.52
2019-04-01T10:18:10.601Z,96513.77
2019-04-01T10:20:43.467Z,96514.80
2019-04-01T10:23:17.515Z,96509.39
2019-04-01T10:25:51.460Z,96499.50
2019-04-01T10:28:25.788Z,96507.06
2019-04-01T10:30:59.810Z,96502.47
2019-04-01T10:33:31.492Z,96508.77
2019-04-01T10:36:04.600Z,96492.61
2019-04-01T10:38:37.674Z,96503.48
2019-04-01T10:41:10.665Z,96498.36
2019-04-01T10:43:43.785Z,96490.16
2019-04-01T10:46:15.607Z,96499.00
2019-04-01T10:48:49.603Z,96494.99
2019-04-01T10:51:22.653Z,96489.47
2019-04-01T10:53:55.718Z,96487.55
2019-04-01T10:56:27.940Z,96494.93
2019-04-01T10:59:01.802Z,96480.45
2019-04-01T11:01:34.668Z,96482.28
2019-04-01T11:04:07.902Z,96484.09
2019-04-01T11:06:40.770Z,96472.56
2019-04-01T11:09:12.820Z,96484.07
2019-04-01T11:11:46.789Z,96475.64
2019-04-01T11:14:19.911Z,96476.66
2019-04-01T11:16:52.879Z,96481.63
2019-04-01T11:19:25.731Z,96473.56
2019-04-01T11:21:59.048Z,96476.04
2019-04-01T11:24:31.425Z,96477.76
2019-04-01T11:27:05.604Z,96474.02
2019-04-01T11:29:37.873Z,96470.50
2019-04-01T11:32:13.317Z,96467.64
2019-04-01T11:34:43.756Z,96465.88
2019-04-01T11:37:15.904Z,96459.89
2019-04-01T11:39:51.537Z,96463.48
2019-04-01T11:42:23.163Z,96450.78
2019-04-01T11:44:57.686Z,96451.51
2019-04-01T11:47:29.853Z,96454.52
2019-04-01T11:50:04.809Z,96449.96
2019-04-01T11:52:38.225Z,96447.59
2019-04-01T11:55:10.264Z,96439.23
2019-04-01T11:57:44.078Z,96444.66
2019-04-01T12:00:18.842Z,96435.47
2019-04-01T12:02:52.789Z,96430.34
2019-04-01T12:05:24.954Z,96430.52
2019-04-01T12:08:00.616Z,96424.92
2019-04-01T12:10:31.970Z,96429.35
2019-04-01T12:13:04.081Z,96425.17
2019-04-01T12:15:37.955Z,96419.81
2019-04-01T12:18:10.010Z,96414.19
2019-04-01T12:20:44.267Z,96412.13
2019-04-01T12:23:16.091Z,96411.94
2019-04-01T12:25:49.060Z,96399.81
2019-04-01T12:28:21.260Z,96405.34
2019-04-01T12:30:56.668Z,96399.83
2019-04-01T12:33:28.311Z,96398.53
2019-04-01T12:36:01.228Z,96398.63
2019-04-01T12:38:36.839Z,96400.09
2019-04-01T12:41:08.193Z,96396.91
2019-04-01T12:43:41.177Z,96396.95
2019-04-01T12:46:15.060Z,96383.10
2019-04-01T12:48:47.244Z,96388.17
2019-04-01T12:51:19.326Z,96375.80
2019-04-01T12:53:53.239Z,96368.06
2019-04-01T12:56:27.725Z,96367.83
2019-04-01T12:58:59.334Z,96362.72
2019-04-01T13:01:31.561Z,96357.53
2019-04-01T13:04:04.466Z,96351.28
2019-04-01T13:06:38.133Z,96352.37
2019-04-01T13:09:11.768Z,96349.42
2019-04-01T13:11:44.477Z,96337.73
2019-04-01T13:14:17.213Z,96334.48
2019-04-01T13:16:51.892Z,96324.11
2019-04-01T13:19:24.308Z,96325.51
2019-04-01T13:21:56.595Z,96320.92
2019-04-01T13:24:30.563Z,96327.84
2019-04-01T13:27:03.407Z,96324.00
2019-04-01T13:29:35.266Z,96323.50
2019-04-01T13:32:08.507Z,96320.61
2019-04-01T13:34:41.269Z,96317.81
2019-04-01T13:37:15.292Z,96313.16
2019-04-01T13:39:49.185Z,96319.30
2019-04-01T13:42:20.406Z,96309.69
2019-04-01T13:44:53.289Z,96310.72
2019-04-01T13:47:26.347Z,96310.92
2019-04-01T13:50:03.509Z,96296.81
2019-04-01T13:52:37.177Z,96293.70
2019-04-01T13:55:11.291Z,96297.34
2019-04-01T13:57:44.422Z,96297.28
2019-04-01T14:00:17.437Z,96288.27
2019-04-01T14:02:53.177Z,96296.52
2019-04-01T14:05:27.513Z,96292.91
2019-04-01T14:08:00.924Z,96297.63
2019-04-01T14:10:33.984Z,96297.13
2019-04-01T14:13:06.668Z,96295.55
2019-04-01T14:15:38.727Z,96292.67
2019-04-01T14:18:12.776Z,96295.58
2019-04-01T14:20:47.181Z,96288.75
2019-04-01T14:23:23.220Z,96284.15
2019-04-01T14:25:55.541Z,96282.17
2019-04-01T14:28:28.590Z,96283.56
2019-04-01T14:31:01.771Z,96281.92
2019-04-01T14:33:35.790Z,96277.86
2019-04-01T14:36:10.347Z,96276.42
2019-04-01T14:38:44.737Z,96279.13
2019-04-01T14:41:16.707Z,96278.71
2019-04-01T14:43:50.684Z,96279.73
2019-04-01T14:46:23.651Z,96278.04
2019-04-01T14:48:55.619Z,96275.70
2019-04-01T14:51:28.781Z,96278.80
2019-04-01T14:54:01.695Z,96272.83
2019-04-01T14:56:34.790Z,96265.92
2019-04-01T14:59:07.932Z,96266.48
2019-04-01T15:01:40.819Z,96261.42
2019-04-01T15:04:13.755Z,96260.44
2019-04-01T15:06:46.809Z,96259.38
2019-04-01T15:09:23.462Z,96262.95
2019-04-01T15:11:57.196Z,96256.43
2019-04-01T15:14:28.968Z,96259.37
2019-04-01T15:17:02.581Z,96254.83
2019-04-01T15:19:34.804Z,96254.20
2019-04-01T15:22:07.878Z,96256.13
2019-04-01T15:24:41.772Z,96254.72
2019-04-01T15:27:17.450Z,96245.84
2019-04-01T15:29:51.762Z,96250.75
2019-04-01T15:32:23.389Z,96243.01
2019-04-01T15:34:56.120Z,96243.49
2019-04-01T15:37:32.034Z,96244.58
2019-04-01T15:40:03.927Z,96239.67
2019-04-01T15:42:37.873Z,96241.37
2019-04-01T15:45:11.169Z,96246.35
2019-04-01T15:47:44.021Z,96245.67
2019-04-01T15:50:28.343Z,96242.69
2019-04-01T15:52:52.901Z,96242.22
2019-04-01T15:55:25.877Z,96244.63
2019-04-01T15:57:59.095Z,96245.36
2019-04-01T16:00:32.176Z,96240.92
2019-04-01T16:03:05.092Z,96237.93
2019-04-01T16:05:38.071Z,96240.92
2019-04-01T16:08:11.773Z,96244.37
2019-04-01T16:10:45.683Z,96248.66
2019-04-01T16:13:19.063Z,96246.92
2019-04-01T16:15:53.011Z,96238.52
2019-04-01T16:18:24.336Z,96239.78
2019-04-01T16:20:59.288Z,96242.58
2019-04-01T16:23:28.934Z,96240.17
2019-04-01T16:26:02.127Z,96242.27
2019-04-01T16:28:33.387Z,96235.59
2019-04-01T16:31:05.198Z,96234.79
2019-04-01T16:33:38.251Z,96232.13
2019-04-01T16:36:11.192Z,96231.53
2019-04-01T16:38:44.172Z,96236.53
2019-04-01T16:41:17.221Z,96238.92
2019-04-01T16:43:50.245Z,96235.16
2019-04-01T16:46:23.251Z,96232.70
2019-04-01T16:48:56.267Z,96235.80
2019-04-01T16:51:31.105Z,96235.63
2019-04-01T16:54:04.230Z,96225.47
2019-04-01T16:56:38.302Z,96234.92
2019-04-01T16:59:11.249Z,96235.97
2019-04-01T17:01:44.502Z,96231.13
2019-04-01T17:04:17.496Z,96238.16
2019-04-01T17:06:50.355Z,96241.39
2019-04-01T17:09:23.318Z,96240.55
2019-04-01T17:11:59.039Z,96245.52
2019-04-01T17:14:31.929Z,96244.19
2019-04-01T17:17:05.804Z,96247.00
2019-04-01T17:19:39.176Z,96246.02
2019-04-01T17:22:11.707Z,96243.99
2019-04-01T17:24:45.943Z,96249.88
2019-04-01T17:27:20.322Z,96247.39
2019-04-01T17:29:53.534Z,96252.27
2019-04-01T17:32:27.176Z,96247.95
2019-04-01T17:35:02.581Z,96252.78
2019-04-01T17:37:35.659Z,96253.28
2019-04-01T17:40:10.279Z,96251.95
2019-04-01T17:42:45.462Z,96253.06
2019-04-01T17:45:41.834Z,96256.21
2019-04-01T17:48:14.706Z,96261.03
2019-04-01T17:50:48.511Z,96260.20
2019-04-01T17:53:21.287Z,96262.62
2019-04-01T17:55:53.546Z,96260.41
2019-04-01T17:58:26.502Z,96267.56
2019-04-01T18:01:00.483Z,96268.82
2019-04-01T18:03:36.073Z,96274.23
2019-04-01T18:06:11.378Z,96275.25
2019-04-01T18:08:45.666Z,96280.49
2019-04-01T18:11:18.706Z,96282.11
2019-04-01T18:13:50.994Z,96287.44
2019-04-01T18:16:26.214Z,96283.44
2019-04-01T18:19:01.371Z,96283.89
2019-04-01T18:21:32.656Z,96282.95
2019-04-01T18:24:06.027Z,96284.56
2019-04-01T18:26:39.516Z,96289.45
2019-04-01T18:29:11.666Z,96284.25
2019-04-01T18:31:44.700Z,96290.14
2019-04-01T18:34:17.840Z,96295.98
2019-04-01T18:36:51.975Z,96294.14
2019-04-01T18:39:24.717Z,96298.33
2019-04-01T18:41:56.557Z,96292.04
2019-04-01T18:44:28.211Z,96295.30
2019-04-01T18:47:03.688Z,96301.16
2019-04-01T18:49:36.157Z,96298.65
2019-04-01T18:52:09.091Z,96302.03
2019-04-01T18:54:42.870Z,96306.34
2019-04-01T18:57:14.763Z,96305.27
2019-04-01T18:59:47.817Z,96312.25
2019-04-01T19:02:22.372Z,96306.31
2019-04-01T19:04:53.769Z,96309.56
2019-04-01T19:07:25.734Z,96312.36
2019-04-01T19:10:06.334Z,96311.90
2019-04-01T19:12:36.542Z,96329.31
2019-04-01T19:15:09.964Z,96313.14
2019-04-01T19:17:43.727Z,96314.83
2019-04-01T19:20:17.877Z,96321.44
2019-04-01T19:22:52.317Z,96322.20
2019-04-01T19:25:25.885Z,96322.48
2019-04-01T19:27:59.373Z,96320.92
2019-04-01T19:30:32.063Z,96324.25
2019-04-01T19:33:06.764Z,96319.61
2019-04-01T19:35:41.041Z,96321.39
2019-04-01T19:38:15.188Z,96324.11
2019-04-01T19:40:48.868Z,96326.47
2019-04-01T19:43:27.973Z,96329.17
2019-04-01T19:46:00.028Z,96323.52
2019-04-01T19:48:32.289Z,96323.50
2019-04-01T19:51:06.742Z,96328.19
2019-04-01T19:53:40.456Z,96322.25
2019-04-01T19:56:14.243Z,96330.19
2019-04-01T19:58:47.345Z,96331.58
2019-04-01T20:01:24.993Z,96333.69
2019-04-01T20:03:59.091Z,96335.00
2019-04-01T20:06:32.310Z,96331.61
2019-04-01T20:09:07.896Z,96332.59
2019-04-01T20:11:39.228Z,96332.77
2019-04-01T20:14:12.375Z,96333.27
2019-04-01T20:16:47.750Z,96329.89
2019-04-01T20:19:20.245Z,96334.23
2019-04-01T20:21:53.476Z,96334.13
2019-04-01T20:24:25.986Z,96332.06
2019-04-01T20:27:00.913Z,96332.53
2019-04-01T20:29:33.335Z,96323.86
2019-04-01T20:32:17.146Z,96330.13
2019-04-01T20:34:56.479Z,96319.27
2019-04-01T20:37:19.862Z,96324.09
2019-04-01T20:39:51.272Z,96322.31
2019-04-01T20:42:24.293Z,96326.70
2019-04-01T20:44:56.221Z,96325.83
2019-04-01T20:47:33.015Z,96322.82
2019-04-01T20:50:06.529Z,96316.70
2019-04-01T20:52:38.366Z,96322.63
2019-04-01T20:55:13.262Z,96310.51
2019-04-01T20:57:46.076Z,96315.42
2019-04-01T21:00:22.346Z,96314.19
2019-04-01T21:02:57.841Z,96311.17
2019-04-01T21:05:31.800Z,96312.73
2019-04-01T21:08:05.642Z,96309.55
2019-04-01T21:10:40.233Z,96307.43
2019-04-01T21:13:12.555Z,96308.73
2019-04-01T21:15:46.377Z,96309.34
2019-04-01T21:18:22.517Z,96305.72
2019-04-01T21:20:55.377Z,96304.05
2019-04-01T21:23:26.621Z,96306.23
2019-04-01T21:25:59.569Z,96298.02
2019-04-01T21:28:32.088Z,96300.53
2019-04-01T21:31:05.376Z,96294.88
2019-04-01T21:33:38.889Z,96296.73
2019-04-01T21:36:12.450Z,96288.64
2019-04-01T21:38:46.181Z,96289.90
2019-04-01T21:41:20.499Z,96284.45
2019-04-01T21:43:53.321Z,96283.22
2019-04-01T21:46:26.565Z,96277.14
2019-04-01T21:48:59.565Z,96269.04
2019-04-01T21:51:33.027Z,96270.66
2019-04-01T21:54:05.628Z,96265.11
2019-04-01T21:56:39.428Z,96269.25
2019-04-01T21:59:12.718Z,96272.11
2019-04-01T22:01:46.329Z,96273.98
2019-04-01T22:04:20.616Z,96278.64
2019-04-01T22:06:53.632Z,96274.34
2019-04-01T22:09:26.223Z,96269.15
2019-04-01T22:11:59.634Z,96273.59
2019-04-01T22:14:31.869Z,96273.03
2019-04-01T22:17:05.641Z,96266.48
2019-04-01T22:19:37.259Z,96269.73
2019-04-01T22:22:09.029Z,96268.80
2019-04-01T22:24:41.865Z,96271.82
2019-04-01T22:27:13.655Z,96264.05
2019-04-01T22:29:48.831Z,96264.74
2019-04-01T22:32:22.537Z,96259.09
2019-04-01T22:34:53.773Z,96253.49
2019-04-01T22:37:27.319Z,96253.70
2019-04-01T22:40:00.240Z,96253.37
2019-04-01T22:42:32.632Z,96256.42
2019-04-01T22:45:07.512Z,96247.14
2019-04-01T22:47:38.694Z,96246.42
2019-04-01T22:50:12.624Z,96235.89
2019-04-01T22:52:48.162Z,96236.42
2019-04-01T22:55:20.880Z,96231.70
2019-04-01T22:57:53.946Z,96229.08
2019-04-01T23:00:26.801Z,96217.02
2019-04-01T23:03:00.025Z,96219.02
2019-04-01T23:05:32.028Z,96213.92
2019-04-01T23:08:05.984Z,96210.08
2019-04-01T23:10:38.866Z,96202.38
2019-04-01T23:13:11.942Z,96202.12
2019-04-01T23:15:44.908Z,96196.54
2019-04-01T23:18:17.913Z,96197.83
2019-04-01T23:20:50.949Z,96186.78
2019-04-01T23:23:24.984Z,96189.13
2019-04-01T23:25:57.007Z,96181.98
2019-04-01T23:28:29.963Z,96181.66
2019-04-01T23:31:02.980Z,96176.88
2019-04-01T23:33:35.992Z,96174.43
2019-04-01T23:36:09.203Z,96178.40
2019-04-01T23:38:41.926Z,96171.25
2019-04-01T23:41:13.902Z,96176.02
2019-04-01T23:43:47.231Z,96169.35
2019-04-01T23:46:21.122Z,96173.08
2019-04-01T23:48:55.205Z,96171.89
2019-04-01T23:51:29.177Z,96162.34
2019-04-01T23:54:02.281Z,96171.89
2019-04-01T23:56:36.105Z,96169.02
2019-04-01T23:59:09.975Z,96162.91
